sensor_id;sensor_type;location;lat;lon;timestamp;pressure;altitude;pressure_sealevel;temperature;humidity
13235;BME280;6683;48.506;9.050;2023-05-25T00:02:54;98442.56;;;14.26;56.61
13235;BME280;6683;48.506;9.050;2023-05-25T00:05:56;98444.63;;;14.24;56.68
13235;BME280;6683;48.506;9.050;2023-05-25T00:09:01;98443.38;;;14.20;56.75
13235;BME280;6683;48.506;9.050;2023-05-25T00:12:06;98443.78;;;14.17;57.09
13235;BME280;6683;48.506;9.050;2023-05-25T00:15:10;98438.88;;;14.14;56.90
13235;BME280;6683;48.506;9.050;2023-05-25T00:18:12;98437.47;;;14.11;56.96
13235;BME280;6683;48.506;9.050;2023-05-25T00:21:15;98433.56;;;14.07;56.85
13235;BME280;6683;48.506;9.050;2023-05-25T00:24:17;98433.16;;;14.04;56.96
13235;BME280;6683;48.506;9.050;2023-05-25T00:27:22;98434.38;;;14.01;56.94
13235;BME280;6683;48.506;9.050;2023-05-25T00:30:25;98434.56;;;14.00;56.95
13235;BME280;6683;48.506;9.050;2023-05-25T00:33:27;98432.94;;;13.99;57.17
13235;BME280;6683;48.506;9.050;2023-05-25T00:36:30;98441.13;;;13.97;57.23
13235;BME280;6683;48.506;9.050;2023-05-25T00:39:33;98436.59;;;13.98;57.30
13235;BME280;6683;48.506;9.050;2023-05-25T00:42:38;98433.16;;;13.97;57.15
13235;BME280;6683;48.506;9.050;2023-05-25T00:45:40;98435.59;;;13.99;57.30
13235;BME280;6683;48.506;9.050;2023-05-25T00:48:43;98440.91;;;13.99;57.43
13235;BME280;6683;48.506;9.050;2023-05-25T00:51:46;98438.47;;;13.97;57.55
13235;BME280;6683;48.506;9.050;2023-05-25T00:54:51;98434.78;;;13.98;57.61
13235;BME280;6683;48.506;9.050;2023-05-25T00:57:59;98433.94;;;13.98;57.69
13235;BME280;6683;48.506;9.050;2023-05-25T01:01:04;98428.84;;;13.96;57.55
13235;BME280;6683;48.506;9.050;2023-05-25T01:04:14;98426.00;;;13.91;57.68
13235;BME280;6683;48.506;9.050;2023-05-25T01:07:20;98426.59;;;13.87;57.79
13235;BME280;6683;48.506;9.050;2023-05-25T01:10:25;98435.16;;;13.82;58.06
13235;BME280;6683;48.506;9.050;2023-05-25T01:13:31;98424.75;;;13.81;58.32
13235;BME280;6683;48.506;9.050;2023-05-25T01:16:38;98429.44;;;13.79;58.33
13235;BME280;6683;48.506;9.050;2023-05-25T01:19:42;98425.34;;;13.76;58.25
13235;BME280;6683;48.506;9.050;2023-05-25T01:22:54;98416.78;;;13.74;58.42
13235;BME280;6683;48.506;9.050;2023-05-25T01:26:03;98407.38;;;13.72;58.33
13235;BME280;6683;48.506;9.050;2023-05-25T01:29:08;98414.72;;;13.70;58.45
13235;BME280;6683;48.506;9.050;2023-05-25T01:32:13;98423.69;;;13.69;58.64
13235;BME280;6683;48.506;9.050;2023-05-25T01:35:16;98421.25;;;13.67;58.57
13235;BME280;6683;48.506;9.050;2023-05-25T01:38:21;98420.41;;;13.67;58.61
13235;BME280;6683;48.506;9.050;2023-05-25T01:41:23;98425.72;;;13.67;58.68
13235;BME280;6683;48.506;9.050;2023-05-25T01:44:27;98428.38;;;13.67;58.73
13235;BME280;6683;48.506;9.050;2023-05-25T01:47:34;98423.06;;;13.67;58.78
13235;BME280;6683;48.506;9.050;2023-05-25T01:50:50;98428.59;;;13.65;58.82
13235;BME280;6683;48.506;9.050;2023-05-25T01:54:02;98423.50;;;13.63;59.16
13235;BME280;6683;48.506;9.050;2023-05-25T01:57:13;98425.53;;;13.61;58.97
13235;BME280;6683;48.506;9.050;2023-05-25T02:00:18;98427.16;;;13.62;58.86
13235;BME280;6683;48.506;9.050;2023-05-25T02:03:21;98424.69;;;13.61;59.00
13235;BME280;6683;48.506;9.050;2023-05-25T02:06:24;98429.38;;;13.59;59.05
13235;BME280;6683;48.506;9.050;2023-05-25T02:09:27;98418.97;;;13.57;59.14
13235;BME280;6683;48.506;9.050;2023-05-25T02:12:30;98414.69;;;13.56;58.97
13235;BME280;6683;48.506;9.050;2023-05-25T02:15:33;98419.16;;;13.56;58.85
13235;BME280;6683;48.506;9.050;2023-05-25T02:18:36;98418.53;;;13.54;58.79
13235;BME280;6683;48.506;9.050;2023-05-25T02:21:38;98411.00;;;13.51;58.80
13235;BME280;6683;48.506;9.050;2023-05-25T02:24:42;98408.56;;;13.49;58.89
13235;BME280;6683;48.506;9.050;2023-05-25T02:27:46;98405.28;;;13.47;58.90
13235;BME280;6683;48.506;9.050;2023-05-25T02:30:49;98408.31;;;13.44;58.91
13235;BME280;6683;48.506;9.050;2023-05-25T02:33:51;98414.00;;;13.41;58.85
13235;BME280;6683;48.506;9.050;2023-05-25T02:36:54;98406.47;;;13.38;58.94
13235;BME280;6683;48.506;9.050;2023-05-25T02:39:59;98408.50;;;13.36;59.17
13235;BME280;6683;48.506;9.050;2023-05-25T02:43:01;98410.53;;;13.34;59.17
13235;BME280;6683;48.506;9.050;2023-05-25T02:46:04;98411.53;;;13.33;58.98
13235;BME280;6683;48.506;9.050;2023-05-25T02:49:06;98415.59;;;13.29;58.96
13235;BME280;6683;48.506;9.050;2023-05-25T02:52:09;98410.72;;;13.26;59.06
13235;BME280;6683;48.506;9.050;2023-05-25T02:55:13;98407.63;;;13.23;59.34
13235;BME280;6683;48.506;9.050;2023-05-25T02:58:18;98409.66;;;13.21;59.24
13235;BME280;6683;48.506;9.050;2023-05-25T03:01:21;98419.63;;;13.19;59.18
13235;BME280;6683;48.506;9.050;2023-05-25T03:04:25;98419.84;;;13.17;59.14
13235;BME280;6683;48.506;9.050;2023-05-25T03:07:28;98420.22;;;13.14;59.17
13235;BME280;6683;48.506;9.050;2023-05-25T03:10:32;98421.63;;;13.10;59.12
13235;BME280;6683;48.506;9.050;2023-05-25T03:13:35;98418.38;;;13.08;59.16
13235;BME280;6683;48.506;9.050;2023-05-25T03:16:38;98425.06;;;13.04;59.29
13235;BME280;6683;48.506;9.050;2023-05-25T03:19:40;98424.63;;;13.01;59.20
13235;BME280;6683;48.506;9.050;2023-05-25T03:22:44;98433.16;;;12.96;59.34
13235;BME280;6683;48.506;9.050;2023-05-25T03:25:49;98437.22;;;12.92;59.62
13235;BME280;6683;48.506;9.050;2023-05-25T03:28:52;98434.97;;;12.89;59.71
13235;BME280;6683;48.506;9.050;2023-05-25T03:31:54;98431.03;;;12.85;59.71
13235;BME280;6683;48.506;9.050;2023-05-25T03:34:57;98430.63;;;12.81;59.79
13235;BME280;6683;48.506;9.050;2023-05-25T03:38:00;98426.72;;;12.77;60.00
13235;BME280;6683;48.506;9.050;2023-05-25T03:41:04;98430.59;;;12.75;59.96
13235;BME280;6683;48.506;9.050;2023-05-25T03:44:06;98428.72;;;12.69;60.04
13235;BME280;6683;48.506;9.050;2023-05-25T03:47:10;98419.31;;;12.60;60.01
13235;BME280;6683;48.506;9.050;2023-05-25T03:50:13;98427.38;;;12.52;60.05
13235;BME280;6683;48.506;9.050;2023-05-25T03:53:16;98423.41;;;12.41;60.14
13235;BME280;6683;48.506;9.050;2023-05-25T03:56:20;98439.44;;;12.33;60.12
13235;BME280;6683;48.506;9.050;2023-05-25T03:59:23;98439.78;;;12.24;60.34
13235;BME280;6683;48.506;9.050;2023-05-25T04:02:26;98446.22;;;12.15;60.60
13235;BME280;6683;48.506;9.050;2023-05-25T04:05:28;98448.78;;;12.08;60.66
13235;BME280;6683;48.506;9.050;2023-05-25T04:08:31;98438.97;;;12.02;60.81
13235;BME280;6683;48.506;9.050;2023-05-25T04:11:35;98443.63;;;12.00;60.98
13235;BME280;6683;48.506;9.050;2023-05-25T04:14:38;98442.63;;;12.01;61.02
13235;BME280;6683;48.506;9.050;2023-05-25T04:17:42;98439.78;;;12.02;61.33
13235;BME280;6683;48.506;9.050;2023-05-25T04:20:45;98447.53;;;12.04;61.27
13235;BME280;6683;48.506;9.050;2023-05-25T04:23:48;98448.97;;;12.07;61.65
13235;BME280;6683;48.506;9.050;2023-05-25T04:26:52;98445.16;;;12.09;61.52
13235;BME280;6683;48.506;9.050;2023-05-25T04:29:56;98440.84;;;12.08;61.63
13235;BME280;6683;48.506;9.050;2023-05-25T04:32:59;98446.34;;;12.07;61.53
13235;BME280;6683;48.506;9.050;2023-05-25T04:36:02;98452.47;;;12.07;61.76
13235;BME280;6683;48.506;9.050;2023-05-25T04:39:05;98452.25;;;12.09;62.02
13235;BME280;6683;48.506;9.050;2023-05-25T04:42:09;98454.09;;;12.08;61.88
13235;BME280;6683;48.506;9.050;2023-05-25T04:45:12;98459.38;;;12.08;62.06
13235;BME280;6683;48.506;9.050;2023-05-25T04:48:17;98456.56;;;12.10;62.20
13235;BME280;6683;48.506;9.050;2023-05-25T04:51:19;98455.53;;;12.11;62.43
13235;BME280;6683;48.506;9.050;2023-05-25T04:54:22;98459.84;;;12.12;62.50
13235;BME280;6683;48.506;9.050;2023-05-25T04:57:26;98473.13;;;12.18;62.51
13235;BME280;6683;48.506;9.050;2023-05-25T05:00:31;98469.31;;;12.27;62.59
13235;BME280;6683;48.506;9.050;2023-05-25T05:03:34;98465.97;;;12.40;62.79
13235;BME280;6683;48.506;9.050;2023-05-25T05:06:37;98477.50;;;12.53;62.67
13235;BME280;6683;48.506;9.050;2023-05-25T05:09:40;98471.28;;;12.67;62.70
13235;BME280;6683;48.506;9.050;2023-05-25T05:12:44;98464.06;;;12.82;62.50
13235;BME280;6683;48.506;9.050;2023-05-25T05:15:47;98469.44;;;12.96;62.39
13235;BME280;6683;48.506;9.050;2023-05-25T05:18:49;98480.97;;;13.09;62.39
13235;BME280;6683;48.506;9.050;2023-05-25T05:21:52;98488.38;;;13.27;62.29
13235;BME280;6683;48.506;9.050;2023-05-25T05:24:55;98484.41;;;13.44;62.54
13235;BME280;6683;48.506;9.050;2023-05-25T05:27:59;98486.13;;;13.64;62.47
13235;BME280;6683;48.506;9.050;2023-05-25T05:31:01;98495.38;;;13.88;62.63
13235;BME280;6683;48.506;9.050;2023-05-25T05:34:03;98506.06;;;14.14;62.83
13235;BME280;6683;48.506;9.050;2023-05-25T05:37:06;98509.00;;;14.39;62.50
13235;BME280;6683;48.506;9.050;2023-05-25T05:40:09;98502.69;;;14.60;62.43
13235;BME280;6683;48.506;9.050;2023-05-25T05:43:14;98512.06;;;14.75;61.86
13235;BME280;6683;48.506;9.050;2023-05-25T05:46:16;98507.16;;;14.85;61.39
13235;BME280;6683;48.506;9.050;2023-05-25T05:49:19;98511.47;;;14.93;61.12
13235;BME280;6683;48.506;9.050;2023-05-25T05:52:22;98518.81;;;14.97;60.87
13235;BME280;6683;48.506;9.050;2023-05-25T05:55:24;98502.03;;;15.03;60.97
13235;BME280;6683;48.506;9.050;2023-05-25T05:58:28;98504.09;;;15.08;60.73
13235;BME280;6683;48.506;9.050;2023-05-25T06:01:32;98506.69;;;15.14;60.47
13235;BME280;6683;48.506;9.050;2023-05-25T06:04:34;98518.38;;;15.20;60.30
13235;BME280;6683;48.506;9.050;2023-05-25T06:07:38;98521.19;;;15.25;60.09
13235;BME280;6683;48.506;9.050;2023-05-25T06:10:41;98516.91;;;15.31;60.17
13235;BME280;6683;48.506;9.050;2023-05-25T06:13:45;98523.22;;;15.36;59.98
13235;BME280;6683;48.506;9.050;2023-05-25T06:16:47;98522.84;;;15.46;59.87
13235;BME280;6683;48.506;9.050;2023-05-25T06:19:50;98519.94;;;15.54;59.75
13235;BME280;6683;48.506;9.050;2023-05-25T06:22:53;98521.78;;;15.60;59.66
13235;BME280;6683;48.506;9.050;2023-05-25T06:25:55;98516.22;;;15.68;59.86
13235;BME280;6683;48.506;9.050;2023-05-25T06:29:02;98510.66;;;15.76;59.81
13235;BME280;6683;48.506;9.050;2023-05-25T06:32:05;98510.00;;;15.87;59.54
13235;BME280;6683;48.506;9.050;2023-05-25T06:35:08;98513.41;;;15.94;59.49
13235;BME280;6683;48.506;9.050;2023-05-25T06:38:14;98509.25;;;16.05;59.35
13235;BME280;6683;48.506;9.050;2023-05-25T06:41:16;98515.75;;;16.15;59.35
13235;BME280;6683;48.506;9.050;2023-05-25T06:44:20;98510.59;;;16.27;59.25
13235;BME280;6683;48.506;9.050;2023-05-25T06:47:23;98497.59;;;16.37;59.17
13235;BME280;6683;48.506;9.050;2023-05-25T06:50:25;98504.91;;;16.48;58.90
13235;BME280;6683;48.506;9.050;2023-05-25T06:53:28;98518.59;;;16.58;58.75
13235;BME280;6683;48.506;9.050;2023-05-25T06:56:31;98517.88;;;16.69;58.54
13235;BME280;6683;48.506;9.050;2023-05-25T06:59:34;98522.72;;;16.78;58.51
13235;BME280;6683;48.506;9.050;2023-05-25T07:02:37;98529.63;;;16.86;58.33
13235;BME280;6683;48.506;9.050;2023-05-25T07:05:39;98522.63;;;16.92;58.47
13235;BME280;6683;48.506;9.050;2023-05-25T07:08:42;98531.59;;;16.97;58.09
13235;BME280;6683;48.506;9.050;2023-05-25T07:11:44;98528.47;;;17.00;57.92
13235;BME280;6683;48.506;9.050;2023-05-25T07:14:48;98540.72;;;17.08;58.06
13235;BME280;6683;48.506;9.050;2023-05-25T07:17:50;98531.84;;;17.14;57.96
13235;BME280;6683;48.506;9.050;2023-05-25T07:20:53;98537.94;;;17.21;58.03
13235;BME280;6683;48.506;9.050;2023-05-25T07:23:55;98534.81;;;17.24;57.82
13235;BME280;6683;48.506;9.050;2023-05-25T07:26:58;98532.53;;;17.27;57.65
13235;BME280;6683;48.506;9.050;2023-05-25T07:30:04;98539.88;;;17.32;57.51
13235;BME280;6683;48.506;9.050;2023-05-25T07:33:07;98533.66;;;17.38;57.44
13235;BME280;6683;48.506;9.050;2023-05-25T07:36:09;98541.00;;;17.42;57.50
13235;BME280;6683;48.506;9.050;2023-05-25T07:39:12;98542.59;;;17.50;57.43
13235;BME280;6683;48.506;9.050;2023-05-25T07:42:14;98548.00;;;17.62;57.64
13235;BME280;6683;48.506;9.050;2023-05-25T07:45:22;98555.41;;;17.78;57.31
13235;BME280;6683;48.506;9.050;2023-05-25T07:48:24;98550.97;;;17.90;57.29
13235;BME280;6683;48.506;9.050;2023-05-25T07:51:28;98560.81;;;18.07;57.34
13235;BME280;6683;48.506;9.050;2023-05-25T07:54:32;98558.47;;;18.29;57.15
13235;BME280;6683;48.506;9.050;2023-05-25T07:57:39;98558.22;;;18.49;56.68
13235;BME280;6683;48.506;9.050;2023-05-25T08:00:43;98554.53;;;18.61;56.61
13235;BME280;6683;48.506;9.050;2023-05-25T08:03:46;98558.84;;;18.74;56.65
13235;BME280;6683;48.506;9.050;2023-05-25T08:06:48;98559.59;;;18.92;56.40
13235;BME280;6683;48.506;9.050;2023-05-25T08:09:51;98552.84;;;19.13;56.18
13235;BME280;6683;48.506;9.050;2023-05-25T08:12:53;98551.69;;;19.32;56.07
13235;BME280;6683;48.506;9.050;2023-05-25T08:15:57;98559.88;;;19.49;55.41
13235;BME280;6683;48.506;9.050;2023-05-25T08:18:59;98557.31;;;19.54;55.15
13235;BME280;6683;48.506;9.050;2023-05-25T08:22:02;98554.50;;;19.60;55.18
13235;BME280;6683;48.506;9.050;2023-05-25T08:25:05;98552.38;;;19.74;55.22
13235;BME280;6683;48.506;9.050;2023-05-25T08:28:07;98555.38;;;19.89;54.94
13235;BME280;6683;48.506;9.050;2023-05-25T08:31:12;98557.22;;;20.00;54.46
13235;BME280;6683;48.506;9.050;2023-05-25T08:34:14;98548.47;;;20.05;54.12
13235;BME280;6683;48.506;9.050;2023-05-25T08:37:17;98543.69;;;20.07;53.88
13235;BME280;6683;48.506;9.050;2023-05-25T08:40:22;98548.22;;;20.06;53.72
13235;BME280;6683;48.506;9.050;2023-05-25T08:43:28;98553.09;;;20.09;53.78
13235;BME280;6683;48.506;9.050;2023-05-25T08:46:32;98549.13;;;20.12;53.66
13235;BME280;6683;48.506;9.050;2023-05-25T08:49:37;98549.69;;;20.14;53.83
13235;BME280;6683;48.506;9.050;2023-05-25T08:52:44;98553.19;;;20.14;54.06
13235;BME280;6683;48.506;9.050;2023-05-25T08:55:49;98549.34;;;20.22;54.09
13235;BME280;6683;48.506;9.050;2023-05-25T08:59:00;98555.41;;;20.29;53.85
13235;BME280;6683;48.506;9.050;2023-05-25T09:02:21;98549.16;;;20.40;53.69
13235;BME280;6683;48.506;9.050;2023-05-25T09:05:26;98548.78;;;20.48;53.95
13235;BME280;6683;48.506;9.050;2023-05-25T09:08:29;98541.72;;;20.58;53.61
13235;BME280;6683;48.506;9.050;2023-05-25T09:11:33;98543.19;;;20.66;53.50
13235;BME280;6683;48.506;9.050;2023-05-25T09:14:36;98554.44;;;20.80;53.32
13235;BME280;6683;48.506;9.050;2023-05-25T09:17:46;98545.81;;;20.94;53.28
13235;BME280;6683;48.506;9.050;2023-05-25T09:20:49;98545.84;;;21.11;53.05
13235;BME280;6683;48.506;9.050;2023-05-25T09:23:51;98552.19;;;21.21;53.12
13235;BME280;6683;48.506;9.050;2023-05-25T09:26:54;98548.00;;;21.30;52.88
13235;BME280;6683;48.506;9.050;2023-05-25T09:29:56;98552.16;;;21.38;52.62
13235;BME280;6683;48.506;9.050;2023-05-25T09:33:10;98554.34;;;21.41;52.88
13235;BME280;6683;48.506;9.050;2023-05-25T09:36:15;98561.97;;;21.49;52.62
13235;BME280;6683;48.506;9.050;2023-05-25T09:39:21;98564.56;;;21.61;52.46
13235;BME280;6683;48.506;9.050;2023-05-25T09:42:23;98557.13;;;21.68;52.60
13235;BME280;6683;48.506;9.050;2023-05-25T09:45:26;98556.72;;;21.76;52.37
13235;BME280;6683;48.506;9.050;2023-05-25T09:48:30;98554.66;;;21.83;51.95
13235;BME280;6683;48.506;9.050;2023-05-25T09:51:33;98561.72;;;21.89;52.17
13235;BME280;6683;48.506;9.050;2023-05-25T09:54:36;98551.06;;;21.94;51.97
13235;BME280;6683;48.506;9.050;2023-05-25T09:57:39;98548.41;;;21.99;51.64
13235;BME280;6683;48.506;9.050;2023-05-25T10:00:41;98550.91;;;22.05;52.01
13235;BME280;6683;48.506;9.050;2023-05-25T10:03:47;98550.53;;;22.18;51.83
13235;BME280;6683;48.506;9.050;2023-05-25T10:06:50;98546.56;;;22.26;51.26
13235;BME280;6683;48.506;9.050;2023-05-25T10:09:59;98546.38;;;22.33;51.66
13235;BME280;6683;48.506;9.050;2023-05-25T10:13:07;98553.69;;;22.37;51.33
13235;BME280;6683;48.506;9.050;2023-05-25T10:16:10;98562.06;;;22.41;51.24
13235;BME280;6683;48.506;9.050;2023-05-25T10:19:20;98554.91;;;22.51;51.31
13235;BME280;6683;48.506;9.050;2023-05-25T10:22:32;98563.47;;;22.70;51.12
13235;BME280;6683;48.506;9.050;2023-05-25T10:25:41;98559.25;;;22.79;50.80
13235;BME280;6683;48.506;9.050;2023-05-25T10:28:50;98560.97;;;22.90;50.99
13235;BME280;6683;48.506;9.050;2023-05-25T10:31:52;98561.53;;;22.97;50.71
13235;BME280;6683;48.506;9.050;2023-05-25T10:34:56;98551.66;;;23.02;50.45
13235;BME280;6683;48.506;9.050;2023-05-25T10:38:00;98557.38;;;23.11;50.37
13235;BME280;6683;48.506;9.050;2023-05-25T10:41:04;98561.72;;;23.17;50.18
13235;BME280;6683;48.506;9.050;2023-05-25T10:44:07;98558.50;;;23.20;49.89
13235;BME280;6683;48.506;9.050;2023-05-25T10:47:11;98559.06;;;23.22;49.94
13235;BME280;6683;48.506;9.050;2023-05-25T10:50:22;98565.59;;;23.31;50.03
13235;BME280;6683;48.506;9.050;2023-05-25T10:53:26;98566.47;;;23.37;49.76
13235;BME280;6683;48.506;9.050;2023-05-25T10:56:28;98558.97;;;23.44;49.54
13235;BME280;6683;48.506;9.050;2023-05-25T10:59:31;98555.81;;;23.57;49.79
13235;BME280;6683;48.506;9.050;2023-05-25T11:02:51;98552.13;;;23.73;49.42
13235;BME280;6683;48.506;9.050;2023-05-25T11:08:59;98564.56;;;23.79;49.43
13235;BME280;6683;48.506;9.050;2023-05-25T11:15:12;98562.69;;;23.79;49.40
13235;BME280;6683;48.506;9.050;2023-05-25T11:18:16;98549.19;;;23.79;49.12
13235;BME280;6683;48.506;9.050;2023-05-25T11:21:41;98559.69;;;23.76;49.20
13235;BME280;6683;48.506;9.050;2023-05-25T11:24:44;98560.22;;;23.73;48.96
13235;BME280;6683;48.506;9.050;2023-05-25T11:27:46;98551.31;;;23.67;49.03
13235;BME280;6683;48.506;9.050;2023-05-25T11:30:49;98555.88;;;23.72;49.13
13235;BME280;6683;48.506;9.050;2023-05-25T11:33:54;98550.53;;;23.77;48.73
13235;BME280;6683;48.506;9.050;2023-05-25T11:37:00;98552.72;;;23.80;49.03
13235;BME280;6683;48.506;9.050;2023-05-25T11:40:07;98547.31;;;23.80;48.82
13235;BME280;6683;48.506;9.050;2023-05-25T11:43:11;98544.09;;;23.83;48.96
13235;BME280;6683;48.506;9.050;2023-05-25T11:46:15;98552.19;;;23.88;48.84
13235;BME280;6683;48.506;9.050;2023-05-25T11:49:20;98544.13;;;23.88;48.53
13235;BME280;6683;48.506;9.050;2023-05-25T11:52:24;98539.28;;;23.90;48.82
13235;BME280;6683;48.506;9.050;2023-05-25T11:55:28;98555.44;;;23.90;48.62
13235;BME280;6683;48.506;9.050;2023-05-25T11:58:33;98552.47;;;23.92;48.64
13235;BME280;6683;48.506;9.050;2023-05-25T12:01:35;98555.44;;;23.95;48.74
13235;BME280;6683;48.506;9.050;2023-05-25T12:04:38;98557.91;;;23.97;48.80
13235;BME280;6683;48.506;9.050;2023-05-25T12:07:44;98540.44;;;24.04;48.79
13235;BME280;6683;48.506;9.050;2023-05-25T12:10:50;98544.25;;;24.13;48.75
13235;BME280;6683;48.506;9.050;2023-05-25T12:13:53;98538.88;;;24.28;48.51
13235;BME280;6683;48.506;9.050;2023-05-25T12:16:55;98544.00;;;24.35;48.09
13235;BME280;6683;48.506;9.050;2023-05-25T12:19:58;98547.28;;;24.42;47.95
13235;BME280;6683;48.506;9.050;2023-05-25T12:23:02;98551.88;;;24.51;47.88
13235;BME280;6683;48.506;9.050;2023-05-25T12:26:08;98540.03;;;24.63;47.75
13235;BME280;6683;48.506;9.050;2023-05-25T12:29:10;98535.72;;;24.67;47.44
13235;BME280;6683;48.506;9.050;2023-05-25T12:32:13;98548.41;;;24.71;47.48
13235;BME280;6683;48.506;9.050;2023-05-25T12:35:15;98555.75;;;24.76;47.45
13235;BME280;6683;48.506;9.050;2023-05-25T12:38:20;98546.03;;;24.80;47.27
13235;BME280;6683;48.506;9.050;2023-05-25T12:41:22;98546.00;;;24.85;47.22
13235;BME280;6683;48.506;9.050;2023-05-25T12:44:26;98548.72;;;24.90;47.26
13235;BME280;6683;48.506;9.050;2023-05-25T12:47:31;98541.16;;;24.92;47.18
13235;BME280;6683;48.506;9.050;2023-05-25T12:50:33;98550.34;;;24.96;47.03
13235;BME280;6683;48.506;9.050;2023-05-25T12:53:49;98550.34;;;25.01;47.20
13235;BME280;6683;48.506;9.050;2023-05-25T12:56:55;98547.09;;;25.04;46.83
13235;BME280;6683;48.506;9.050;2023-05-25T12:59:57;98548.16;;;25.08;46.84
13235;BME280;6683;48.506;9.050;2023-05-25T13:03:01;98534.94;;;25.06;46.66
13235;BME280;6683;48.506;9.050;2023-05-25T13:06:04;98538.97;;;25.14;46.63
13235;BME280;6683;48.506;9.050;2023-05-25T13:09:08;98541.97;;;25.17;46.43
13235;BME280;6683;48.506;9.050;2023-05-25T13:12:10;98541.97;;;25.17;46.51
13235;BME280;6683;48.506;9.050;2023-05-25T13:15:16;98540.31;;;25.16;46.24
13235;BME280;6683;48.506;9.050;2023-05-25T13:18:20;98538.97;;;25.14;46.26
13235;BME280;6683;48.506;9.050;2023-05-25T13:21:23;98538.19;;;25.13;46.39
13235;BME280;6683;48.506;9.050;2023-05-25T13:24:26;98534.09;;;25.16;45.98
13235;BME280;6683;48.506;9.050;2023-05-25T13:27:29;98536.28;;;25.19;46.17
13235;BME280;6683;48.506;9.050;2023-05-25T13:30:31;98530.06;;;25.23;46.07
13235;BME280;6683;48.506;9.050;2023-05-25T13:33:35;98538.44;;;25.27;46.08
13235;BME280;6683;48.506;9.050;2023-05-25T13:36:37;98525.44;;;25.34;45.97
13235;BME280;6683;48.506;9.050;2023-05-25T13:39:41;98529.22;;;25.38;45.76
13235;BME280;6683;48.506;9.050;2023-05-25T13:42:44;98524.09;;;25.47;45.69
13235;BME280;6683;48.506;9.050;2023-05-25T13:45:46;98518.66;;;25.57;45.65
13235;BME280;6683;48.506;9.050;2023-05-25T13:48:48;98521.03;;;25.73;45.89
13235;BME280;6683;48.506;9.050;2023-05-25T13:51:50;98527.75;;;25.91;45.97
13235;BME280;6683;48.506;9.050;2023-05-25T13:54:54;98525.78;;;26.01;45.22
13235;BME280;6683;48.506;9.050;2023-05-25T13:57:56;98512.81;;;26.08;44.90
13235;BME280;6683;48.506;9.050;2023-05-25T14:00:59;98514.97;;;26.11;45.01
13235;BME280;6683;48.506;9.050;2023-05-25T14:04:01;98512.47;;;26.20;44.67
13235;BME280;6683;48.506;9.050;2023-05-25T14:07:04;98514.84;;;26.27;44.37
13235;BME280;6683;48.506;9.050;2023-05-25T14:10:09;98515.38;;;26.34;44.23
13235;BME280;6683;48.506;9.050;2023-05-25T14:13:12;98511.78;;;26.43;43.87
13235;BME280;6683;48.506;9.050;2023-05-25T14:16:14;98509.25;;;26.57;44.10
13235;BME280;6683;48.506;9.050;2023-05-25T14:19:16;98508.88;;;26.73;43.62
13235;BME280;6683;48.506;9.050;2023-05-25T14:22:18;98508.28;;;26.81;43.66
13235;BME280;6683;48.506;9.050;2023-05-25T14:25:22;98501.44;;;26.89;43.32
13235;BME280;6683;48.506;9.050;2023-05-25T14:28:24;98501.91;;;26.96;43.38
13235;BME280;6683;48.506;9.050;2023-05-25T14:31:27;98508.44;;;26.95;43.25
13235;BME280;6683;48.506;9.050;2023-05-25T14:34:29;98510.13;;;26.91;42.97
13235;BME280;6683;48.506;9.050;2023-05-25T14:37:32;98508.50;;;26.85;42.96
13235;BME280;6683;48.506;9.050;2023-05-25T14:40:36;98509.94;;;26.77;42.80
13235;BME280;6683;48.506;9.050;2023-05-25T14:43:38;98500.22;;;26.71;43.07
13235;BME280;6683;48.506;9.050;2023-05-25T14:46:40;98505.63;;;26.71;43.07
13235;BME280;6683;48.506;9.050;2023-05-25T14:49:43;98501.28;;;26.70;42.95
13235;BME280;6683;48.506;9.050;2023-05-25T14:52:45;98508.94;;;26.63;42.74
13235;BME280;6683;48.506;9.050;2023-05-25T14:55:49;98506.56;;;26.52;43.02
13235;BME280;6683;48.506;9.050;2023-05-25T14:58:51;98501.81;;;26.39;43.28
13235;BME280;6683;48.506;9.050;2023-05-25T15:01:54;98509.97;;;26.29;43.52
13235;BME280;6683;48.506;9.050;2023-05-25T15:04:56;98505.69;;;26.23;43.61
13235;BME280;6683;48.506;9.050;2023-05-25T15:07:59;98512.19;;;26.22;43.64
13235;BME280;6683;48.506;9.050;2023-05-25T15:11:03;98511.91;;;26.18;43.53
13235;BME280;6683;48.506;9.050;2023-05-25T15:14:05;98511.97;;;26.13;43.84
13235;BME280;6683;48.506;9.050;2023-05-25T15:17:07;98511.97;;;26.13;43.45
13235;BME280;6683;48.506;9.050;2023-05-25T15:20:10;98500.03;;;26.14;43.68
13235;BME280;6683;48.506;9.050;2023-05-25T15:23:13;98505.97;;;26.16;43.82
13235;BME280;6683;48.506;9.050;2023-05-25T15:26:17;98500.03;;;26.19;43.76
13235;BME280;6683;48.506;9.050;2023-05-25T15:29:19;98497.03;;;26.21;43.91
13235;BME280;6683;48.506;9.050;2023-05-25T15:32:21;98501.38;;;26.22;43.72
13235;BME280;6683;48.506;9.050;2023-05-25T15:35:24;98495.97;;;26.22;43.29
13235;BME280;6683;48.506;9.050;2023-05-25T15:38:30;98498.38;;;26.23;43.87
13235;BME280;6683;48.506;9.050;2023-05-25T15:41:34;98497.84;;;26.26;43.67
13235;BME280;6683;48.506;9.050;2023-05-25T15:44:36;98495.06;;;26.31;44.06
13235;BME280;6683;48.506;9.050;2023-05-25T15:47:39;98499.66;;;26.36;43.98
13235;BME280;6683;48.506;9.050;2023-05-25T15:50:41;98499.06;;;26.44;44.14
13235;BME280;6683;48.506;9.050;2023-05-25T15:53:43;98499.84;;;26.49;43.81
13235;BME280;6683;48.506;9.050;2023-05-25T15:56:47;98502.50;;;26.54;43.83
13235;BME280;6683;48.506;9.050;2023-05-25T15:59:49;98495.72;;;26.57;43.60
13235;BME280;6683;48.506;9.050;2023-05-25T16:02:52;98496.75;;;26.61;43.39
13235;BME280;6683;48.506;9.050;2023-05-25T16:05:56;98491.56;;;26.69;43.84
13235;BME280;6683;48.506;9.050;2023-05-25T16:08:58;98489.91;;;26.78;43.65
13235;BME280;6683;48.506;9.050;2023-05-25T16:12:02;98495.50;;;26.87;43.66
13235;BME280;6683;48.506;9.050;2023-05-25T16:15:06;98488.06;;;26.98;43.14
13235;BME280;6683;48.506;9.050;2023-05-25T16:18:08;98510.78;;;27.07;43.11
13235;BME280;6683;48.506;9.050;2023-05-25T16:21:11;98503.97;;;27.09;42.56
13235;BME280;6683;48.506;9.050;2023-05-25T16:24:13;98499.13;;;27.06;42.64
13235;BME280;6683;48.506;9.050;2023-05-25T16:27:17;98494.28;;;27.03;42.47
13235;BME280;6683;48.506;9.050;2023-05-25T16:30:19;98498.06;;;27.02;42.31
13235;BME280;6683;48.506;9.050;2023-05-25T16:33:22;98497.84;;;26.99;42.75